Time;durP1;ratioP1;P1;durP2;ratioP2;P2;SDS_P1;SDS_P2;PMS_P1;PMS_P2;Temp;Humidity;BMP_temperature;BMP_pressure;BME280_temperature;BME280_humidity;BME280_pressure;Samples;Min_cycle;Max_cycle;Signal;HPM_P1;HPM_P2
2021/12/02 00:01:26;;;;;;;1.30;1.10;;;;;;;;;;5032835;28;20478;-60
2021/12/02 00:03:53;;;;;;;1.70;1.60;;;;;;;;;;5032574;28;20643;-60
2021/12/02 00:06:19;;;;;;;3.40;1.50;;;;;;;;;;5032644;28;20870;-61
2021/12/02 00:08:48;;;;;;;3.13;1.33;;;;;;;;;;5032316;28;20474;-61
2021/12/02 00:11:14;;;;;;;4.27;1.43;;;;;;;;;;5032747;28;20447;-61
2021/12/02 00:21:15;;;;;;;3.67;1.60;;;;;;;;;;5032093;28;20440;-61
2021/12/02 00:23:47;;;;;;;4.00;2.03;;;;;;;;;;5032374;28;20204;-61
2021/12/02 00:26:16;;;;;;;5.17;2.00;;;;;;;;;;5032742;28;20439;-61
2021/12/02 00:28:42;;;;;;;3.70;1.83;;;;;;;;;;5032307;28;20825;-61
2021/12/02 00:31:11;;;;;;;3.00;1.87;;;;;;;;;;5032535;28;20443;-61
2021/12/02 00:33:39;;;;;;;3.80;1.60;;;;;;;;;;5032196;28;20479;-61
2021/12/02 00:36:05;;;;;;;3.40;1.70;;;;;;;;;;5032465;28;20439;-61
2021/12/02 00:38:31;;;;;;;5.00;1.90;;;;;;;;;;5032255;28;20438;-60
2021/12/02 00:40:57;;;;;;;8.93;2.20;;;;;;;;;;5032052;28;20431;-61
2021/12/02 00:43:24;;;;;;;3.67;1.90;;;;;;;;;;5032223;28;20259;-60
2021/12/02 00:45:51;;;;;;;7.50;2.57;;;;;;;;;;5032061;28;20446;-60
2021/12/02 00:48:17;;;;;;;3.97;2.07;;;;;;;;;;5032302;28;20436;-61
2021/12/02 00:50:44;;;;;;;6.80;2.00;;;;;;;;;;5031973;28;20518;-61
2021/12/02 00:53:11;;;;;;;5.50;1.97;;;;;;;;;;5031952;28;20578;-62
2021/12/02 00:55:38;;;;;;;5.43;2.20;;;;;;;;;;5017197;28;20447;-61
2021/12/02 00:58:04;;;;;;;7.87;2.23;;;;;;;;;;5010447;28;20943;-61
2021/12/02 01:00:32;;;;;;;6.67;1.97;;;;;;;;;;5012391;28;20491;-63
2021/12/02 01:02:59;;;;;;;7.03;2.17;;;;;;;;;;5012198;28;20863;-63
2021/12/02 01:05:25;;;;;;;6.30;2.63;;;;;;;;;;5012126;28;20460;-63
2021/12/02 01:07:51;;;;;;;8.97;2.20;;;;;;;;;;5010895;28;21025;-62
2021/12/02 01:10:18;;;;;;;6.40;2.50;;;;;;;;;;5012099;28;20291;-64
2021/12/02 01:12:46;;;;;;;6.60;1.80;;;;;;;;;;5012120;28;20484;-68
2021/12/02 01:15:12;;;;;;;4.67;2.00;;;;;;;;;;5012291;28;20839;-68
2021/12/02 01:17:40;;;;;;;6.10;2.03;;;;;;;;;;5012176;28;20459;-67
2021/12/02 01:20:07;;;;;;;4.27;2.00;;;;;;;;;;5012003;28;20440;-68
2021/12/02 01:22:36;;;;;;;6.23;1.90;;;;;;;;;;5012019;28;20812;-68
2021/12/02 01:25:03;;;;;;;5.43;1.90;;;;;;;;;;5011851;28;20479;-68
2021/12/02 01:27:29;;;;;;;5.67;1.90;;;;;;;;;;5012261;28;20471;-68
2021/12/02 01:29:56;;;;;;;4.73;1.57;;;;;;;;;;5012036;28;20432;-67
2021/12/02 01:32:23;;;;;;;6.93;2.53;;;;;;;;;;5012617;28;20448;-67
2021/12/02 01:34:52;;;;;;;4.40;1.83;;;;;;;;;;5015968;28;20885;-67
2021/12/02 01:37:18;;;;;;;4.73;1.93;;;;;;;;;;5015899;28;20452;-67
2021/12/02 01:39:44;;;;;;;5.23;2.23;;;;;;;;;;5015689;28;20472;-68
2021/12/02 01:42:14;;;;;;;4.50;2.13;;;;;;;;;;5015946;28;20440;-67
2021/12/02 01:44:41;;;;;;;9.47;2.07;;;;;;;;;;5015493;28;20990;-68
2021/12/02 01:47:12;;;;;;;8.90;2.40;;;;;;;;;;5015871;28;20520;-68
2021/12/02 01:49:40;;;;;;;4.17;2.17;;;;;;;;;;5015739;28;20591;-69
2021/12/02 01:52:09;;;;;;;6.90;2.13;;;;;;;;;;5013807;28;20460;-68
2021/12/02 01:54:42;;;;;;;5.27;1.80;;;;;;;;;;5015629;28;20454;-68
2021/12/02 01:57:08;;;;;;;5.37;1.50;;;;;;;;;;5015488;28;20491;-68
2021/12/02 01:59:35;;;;;;;4.73;1.73;;;;;;;;;;5015353;28;20998;-68
2021/12/02 02:02:03;;;;;;;9.57;2.53;;;;;;;;;;5015474;28;20463;-68
2021/12/02 02:04:29;;;;;;;9.30;2.40;;;;;;;;;;5015375;28;20931;-68
2021/12/02 02:06:57;;;;;;;6.30;2.00;;;;;;;;;;5015299;28;20491;-68
2021/12/02 02:09:25;;;;;;;6.30;1.97;;;;;;;;;;5015105;28;20260;-68
2021/12/02 02:11:51;;;;;;;7.70;1.97;;;;;;;;;;5015262;28;20483;-68
2021/12/02 02:14:17;;;;;;;5.70;1.90;;;;;;;;;;5015310;28;20472;-68
2021/12/02 02:16:44;;;;;;;6.37;2.20;;;;;;;;;;5015200;28;20448;-68
2021/12/02 02:19:12;;;;;;;4.20;1.90;;;;;;;;;;5015266;28;20444;-70
2021/12/02 02:21:40;;;;;;;7.53;2.00;;;;;;;;;;5015057;28;20429;-69
2021/12/02 02:24:08;;;;;;;5.33;1.80;;;;;;;;;;5014713;28;20455;-69
2021/12/02 02:26:35;;;;;;;4.27;1.93;;;;;;;;;;5015042;28;20519;-69
2021/12/02 02:29:01;;;;;;;8.47;2.50;;;;;;;;;;5014990;28;20492;-69
2021/12/02 02:31:28;;;;;;;8.40;2.27;;;;;;;;;;5015109;28;20475;-69
2021/12/02 02:33:54;;;;;;;6.83;2.10;;;;;;;;;;5014787;28;20476;-69
2021/12/02 02:36:21;;;;;;;7.27;2.00;;;;;;;;;;5014947;28;20510;-68
2021/12/02 02:38:56;;;;;;;6.00;2.47;;;;;;;;;;5014724;28;20451;-68
2021/12/02 02:41:23;;;;;;;7.30;2.00;;;;;;;;;;5014886;28;20495;-68
2021/12/02 02:43:50;;;;;;;6.97;2.20;;;;;;;;;;5014105;28;20452;-68
2021/12/02 02:46:22;;;;;;;4.77;2.20;;;;;;;;;;5014808;28;20519;-68
2021/12/02 02:48:48;;;;;;;5.53;2.00;;;;;;;;;;5014496;28;20547;-69
2021/12/02 02:51:14;;;;;;;5.37;2.10;;;;;;;;;;5014507;28;20441;-69
2021/12/02 02:53:41;;;;;;;6.67;2.03;;;;;;;;;;5014256;28;20530;-68
2021/12/02 02:56:15;;;;;;;5.17;2.00;;;;;;;;;;5014492;28;20194;-68
2021/12/02 03:01:32;;;;;;;6.23;1.77;;;;;;;;;;5014528;28;20437;-68
2021/12/02 03:09:25;;;;;;;8.53;1.73;;;;;;;;;;5014082;28;20543;-68
2021/12/02 03:11:55;;;;;;;7.40;2.20;;;;;;;;;;5014189;28;20857;-69
2021/12/02 03:16:37;;;;;;;3.93;2.33;;;;;;;;;;5014070;28;20476;-68
2021/12/02 03:17:08;;;;;;;7.73;1.80;;;;;;;;;;5003241;28;20444;-67
2021/12/02 03:19:35;;;;;;;5.73;1.83;;;;;;;;;;5014102;28;20445;-68
2021/12/02 03:22:01;;;;;;;6.47;2.40;;;;;;;;;;5013903;28;20436;-69
2021/12/02 03:24:27;;;;;;;6.17;2.30;;;;;;;;;;5013857;28;20576;-69
2021/12/02 03:26:54;;;;;;;3.67;1.83;;;;;;;;;;5013687;28;20433;-68
2021/12/02 03:29:21;;;;;;;5.60;2.07;;;;;;;;;;5013785;28;20816;-68
2021/12/02 03:31:47;;;;;;;8.30;1.80;;;;;;;;;;5013727;28;20862;-68
2021/12/02 03:34:13;;;;;;;4.63;1.57;;;;;;;;;;5013674;28;20991;-68
2021/12/02 03:36:39;;;;;;;6.63;2.43;;;;;;;;;;5013448;28;20429;-67
2021/12/02 03:39:06;;;;;;;3.50;1.67;;;;;;;;;;5013540;28;20544;-67
2021/12/02 03:41:33;;;;;;;5.17;1.80;;;;;;;;;;5013780;28;20437;-67
2021/12/02 03:44:00;;;;;;;4.20;1.70;;;;;;;;;;5013531;28;20444;-66
2021/12/02 03:46:27;;;;;;;6.47;2.03;;;;;;;;;;5013464;28;20931;-66
2021/12/02 03:48:53;;;;;;;7.93;2.33;;;;;;;;;;5013345;28;20436;-66
2021/12/02 03:51:19;;;;;;;3.33;1.90;;;;;;;;;;5013345;28;20464;-66
2021/12/02 03:53:46;;;;;;;6.00;2.07;;;;;;;;;;5013393;28;20468;-66
2021/12/02 03:56:12;;;;;;;5.83;1.90;;;;;;;;;;5012565;28;20443;-65
2021/12/02 03:58:39;;;;;;;4.73;1.80;;;;;;;;;;5013003;28;20519;-65
2021/12/02 04:01:07;;;;;;;5.27;2.00;;;;;;;;;;5012827;28;20467;-65
2021/12/02 04:03:33;;;;;;;5.87;2.17;;;;;;;;;;5013116;28;20536;-65
2021/12/02 04:06:00;;;;;;;6.33;1.97;;;;;;;;;;5012555;28;20483;-65
2021/12/02 04:08:30;;;;;;;5.43;1.90;;;;;;;;;;5012446;28;20436;-66
2021/12/02 04:11:17;;;;;;;8.20;2.43;;;;;;;;;;5012800;28;20440;-65
2021/12/02 04:16:20;;;;;;;5.37;2.13;;;;;;;;;;5012739;28;20496;-65
2021/12/02 04:18:47;;;;;;;6.37;2.60;;;;;;;;;;5012856;28;20445;-65
2021/12/02 04:21:13;;;;;;;7.33;2.13;;;;;;;;;;5012720;28;20433;-65
2021/12/02 04:23:39;;;;;;;5.57;2.27;;;;;;;;;;5012660;28;20487;-65
2021/12/02 04:26:05;;;;;;;5.17;1.90;;;;;;;;;;5012704;28;20772;-64
2021/12/02 04:28:31;;;;;;;7.63;2.60;;;;;;;;;;5012783;28;20935;-64
2021/12/02 04:30:57;;;;;;;5.20;1.97;;;;;;;;;;5012605;28;20436;-64
2021/12/02 04:33:25;;;;;;;4.67;2.00;;;;;;;;;;5012649;28;20477;-64
2021/12/02 04:35:52;;;;;;;7.23;2.00;;;;;;;;;;5012504;28;20445;-64
2021/12/02 04:38:18;;;;;;;7.07;2.57;;;;;;;;;;5012560;28;20453;-63
2021/12/02 04:40:44;;;;;;;7.50;2.20;;;;;;;;;;5012648;28;20516;-64
2021/12/02 04:43:10;;;;;;;7.57;2.70;;;;;;;;;;5012637;28;20429;-64
2021/12/02 04:45:36;;;;;;;5.50;2.00;;;;;;;;;;5012369;28;20507;-62
2021/12/02 04:48:02;;;;;;;5.93;2.20;;;;;;;;;;5012337;28;20193;-63
2021/12/02 04:50:30;;;;;;;7.40;2.07;;;;;;;;;;5012360;28;20290;-63
2021/12/02 04:52:56;;;;;;;6.47;2.07;;;;;;;;;;5012089;28;20479;-64
2021/12/02 04:55:22;;;;;;;5.00;1.67;;;;;;;;;;5012250;28;20428;-64
2021/12/02 04:57:48;;;;;;;2.77;1.60;;;;;;;;;;5012193;28;20911;-64
2021/12/02 05:00:15;;;;;;;5.00;1.60;;;;;;;;;;5012358;28;20440;-63
2021/12/02 05:02:41;;;;;;;5.07;1.90;;;;;;;;;;5012051;28;20436;-63
2021/12/02 05:05:08;;;;;;;7.97;1.90;;;;;;;;;;5011939;28;20464;-64
2021/12/02 05:07:35;;;;;;;5.93;2.40;;;;;;;;;;5011691;28;20449;-63
2021/12/02 05:10:01;;;;;;;3.70;2.00;;;;;;;;;;5011844;28;20494;-64
2021/12/02 05:12:27;;;;;;;1.93;1.50;;;;;;;;;;5011954;28;20444;-64
2021/12/02 05:14:53;;;;;;;4.17;1.83;;;;;;;;;;5012038;28;20204;-64
2021/12/02 05:17:19;;;;;;;5.27;2.13;;;;;;;;;;5012065;28;20437;-64
2021/12/02 05:19:46;;;;;;;4.00;1.87;;;;;;;;;;5012156;28;20762;-64
2021/12/02 05:22:12;;;;;;;5.40;2.20;;;;;;;;;;5011982;28;20201;-63
2021/12/02 05:24:39;;;;;;;4.83;2.17;;;;;;;;;;5011844;28;20429;-63
2021/12/02 05:27:06;;;;;;;3.73;1.70;;;;;;;;;;5011786;28;20835;-64
2021/12/02 05:29:32;;;;;;;7.10;2.03;;;;;;;;;;5012041;28;20433;-64
2021/12/02 05:31:58;;;;;;;3.60;1.50;;;;;;;;;;5011699;28;20495;-64
2021/12/02 05:34:24;;;;;;;7.53;1.80;;;;;;;;;;5011749;28;20268;-64
2021/12/02 05:36:50;;;;;;;4.73;1.80;;;;;;;;;;5011629;28;20468;-66
2021/12/02 05:39:16;;;;;;;7.83;2.10;;;;;;;;;;5011927;28;20439;-63
2021/12/02 05:41:43;;;;;;;4.60;2.30;;;;;;;;;;5011706;28;20432;-64
2021/12/02 05:44:09;;;;;;;7.00;2.13;;;;;;;;;;5011720;28;20200;-63
2021/12/02 05:46:35;;;;;;;5.67;2.00;;;;;;;;;;5011693;28;20448;-64
2021/12/02 05:49:01;;;;;;;7.90;2.50;;;;;;;;;;5011608;28;20198;-64
2021/12/02 05:51:27;;;;;;;5.20;2.20;;;;;;;;;;5009913;28;20197;-63
2021/12/02 05:53:53;;;;;;;4.57;1.90;;;;;;;;;;5011527;28;20900;-63
2021/12/02 05:56:19;;;;;;;9.07;2.43;;;;;;;;;;5011593;28;20437;-63
2021/12/02 05:58:46;;;;;;;5.43;2.07;;;;;;;;;;5011506;28;20597;-63
2021/12/02 06:01:13;;;;;;;7.73;2.10;;;;;;;;;;5011635;28;20461;-63
2021/12/02 06:03:40;;;;;;;4.10;2.23;;;;;;;;;;5011445;28;20436;-63
2021/12/02 06:06:06;;;;;;;4.60;1.73;;;;;;;;;;5011366;28;20464;-63
2021/12/02 06:08:32;;;;;;;3.87;1.80;;;;;;;;;;5011245;28;20524;-63
2021/12/02 06:10:58;;;;;;;5.07;1.80;;;;;;;;;;5011258;28;20428;-63
2021/12/02 06:13:25;;;;;;;4.53;1.93;;;;;;;;;;5011114;28;20930;-63
2021/12/02 06:15:53;;;;;;;3.20;1.90;;;;;;;;;;5011307;28;20439;-63
2021/12/02 06:18:19;;;;;;;7.93;1.80;;;;;;;;;;5011999;28;20440;-63
2021/12/02 06:20:51;;;;;;;8.60;2.00;;;;;;;;;;5014792;28;20817;-62
2021/12/02 06:23:17;;;;;;;6.17;2.17;;;;;;;;;;5014966;28;20428;-62
2021/12/02 06:25:47;;;;;;;7.13;2.23;;;;;;;;;;5014775;28;20540;-62
2021/12/02 06:28:13;;;;;;;5.80;2.17;;;;;;;;;;5014786;28;20436;-62
2021/12/02 06:30:39;;;;;;;4.77;1.97;;;;;;;;;;5014674;28;20507;-63
2021/12/02 06:33:07;;;;;;;3.13;1.50;;;;;;;;;;5014840;28;20543;-64
2021/12/02 06:35:33;;;;;;;4.50;2.07;;;;;;;;;;5014910;28;20445;-63
2021/12/02 06:37:59;;;;;;;3.93;2.10;;;;;;;;;;5014740;28;20436;-63
2021/12/02 06:40:25;;;;;;;4.57;2.00;;;;;;;;;;5014808;28;20520;-64
2021/12/02 06:42:51;;;;;;;6.30;2.30;;;;;;;;;;5014616;28;20472;-63
2021/12/02 06:45:19;;;;;;;5.27;2.13;;;;;;;;;;5014829;28;20436;-64
2021/12/02 06:47:45;;;;;;;5.23;2.30;;;;;;;;;;5014680;28;20455;-64
2021/12/02 06:50:16;;;;;;;3.60;2.00;;;;;;;;;;5014462;28;20443;-64
2021/12/02 06:52:42;;;;;;;5.33;2.03;;;;;;;;;;5014299;28;20978;-64
2021/12/02 06:55:08;;;;;;;7.23;2.00;;;;;;;;;;5014208;28;20516;-64
2021/12/02 06:57:34;;;;;;;5.03;2.13;;;;;;;;;;5014071;28;20444;-64
2021/12/02 07:00:07;;;;;;;5.57;1.83;;;;;;;;;;5014327;28;20923;-64
2021/12/02 07:02:33;;;;;;;10.13;2.50;;;;;;;;;;5014348;28;20460;-64
2021/12/02 07:04:58;;;;;;;7.67;2.33;;;;;;;;;;5013809;28;20492;-64
2021/12/02 07:07:30;;;;;;;4.67;2.00;;;;;;;;;;5013893;28;20204;-65
2021/12/02 07:09:56;;;;;;;4.23;1.80;;;;;;;;;;5013626;28;20293;-64
2021/12/02 07:12:29;;;;;;;5.70;1.90;;;;;;;;;;5013782;28;20604;-65
2021/12/02 07:14:55;;;;;;;5.30;1.90;;;;;;;;;;5013668;28;20484;-65
2021/12/02 07:17:21;;;;;;;7.03;2.93;;;;;;;;;;5013701;28;20487;-64
2021/12/02 07:19:47;;;;;;;5.80;2.70;;;;;;;;;;5013576;28;20445;-65
2021/12/02 07:22:13;;;;;;;3.20;2.30;;;;;;;;;;5013753;28;20811;-65
2021/12/02 07:24:40;;;;;;;6.23;2.40;;;;;;;;;;5013591;28;20193;-65
2021/12/02 07:27:06;;;;;;;5.23;2.53;;;;;;;;;;5013380;28;20201;-65
2021/12/02 07:29:33;;;;;;;2.93;1.97;;;;;;;;;;5013574;28;20523;-65
2021/12/02 07:32:01;;;;;;;7.17;2.60;;;;;;;;;;5013434;28;20760;-65
2021/12/02 07:34:29;;;;;;;5.70;2.50;;;;;;;;;;5013487;28;20484;-65
2021/12/02 07:36:56;;;;;;;5.37;2.37;;;;;;;;;;5013362;28;20441;-66
2021/12/02 07:39:23;;;;;;;6.30;2.70;;;;;;;;;;5013548;28;20437;-66
2021/12/02 07:41:51;;;;;;;4.70;2.13;;;;;;;;;;5013355;28;20548;-65
2021/12/02 07:44:18;;;;;;;9.07;2.20;;;;;;;;;;5013486;28;20439;-66
2021/12/02 07:46:44;;;;;;;5.07;2.30;;;;;;;;;;5013380;28;20500;-65
2021/12/02 07:49:12;;;;;;;6.20;2.83;;;;;;;;;;5013241;28;20816;-67
2021/12/02 07:51:39;;;;;;;7.77;2.40;;;;;;;;;;5013273;28;20475;-69
2021/12/02 07:54:05;;;;;;;5.93;1.90;;;;;;;;;;5013036;28;20492;-68
2021/12/02 07:56:33;;;;;;;4.00;2.20;;;;;;;;;;5013235;28;20495;-70
2021/12/02 07:59:01;;;;;;;8.03;2.20;;;;;;;;;;5013168;28;20730;-69
2021/12/02 08:01:27;;;;;;;8.83;2.23;;;;;;;;;;5013239;28;20528;-70
2021/12/02 08:03:53;;;;;;;3.97;2.10;;;;;;;;;;5012996;28;20464;-70
2021/12/02 08:06:19;;;;;;;4.50;2.73;;;;;;;;;;5012788;28;20493;-70
2021/12/02 08:08:46;;;;;;;7.17;2.90;;;;;;;;;;5012861;28;20476;-70
2021/12/02 08:11:13;;;;;;;4.03;2.30;;;;;;;;;;5012683;28;20424;-70
2021/12/02 08:13:39;;;;;;;6.40;2.23;;;;;;;;;;5012768;28;21037;-70
2021/12/02 08:16:07;;;;;;;9.90;3.10;;;;;;;;;;5012703;28;20471;-70
2021/12/02 08:18:33;;;;;;;7.43;2.10;;;;;;;;;;5012720;28;20471;-68
2021/12/02 08:21:00;;;;;;;4.47;1.80;;;;;;;;;;5012565;28;20441;-64
2021/12/02 08:23:26;;;;;;;4.87;2.20;;;;;;;;;;5012706;28;20429;-70
2021/12/02 08:25:53;;;;;;;5.80;2.40;;;;;;;;;;5012718;28;20447;-62
2021/12/02 08:28:19;;;;;;;7.27;2.20;;;;;;;;;;5010253;28;20205;-62
2021/12/02 08:30:45;;;;;;;6.03;1.80;;;;;;;;;;5009555;28;20927;-63
2021/12/02 08:33:14;;;;;;;5.00;2.07;;;;;;;;;;5012167;28;20226;-63
2021/12/02 08:35:40;;;;;;;7.43;1.97;;;;;;;;;;5012288;28;20464;-61
2021/12/02 08:38:12;;;;;;;3.17;1.90;;;;;;;;;;5011998;28;20428;-62
2021/12/02 08:40:39;;;;;;;7.20;2.10;;;;;;;;;;5012236;28;20448;-63
2021/12/02 08:43:06;;;;;;;6.17;2.20;;;;;;;;;;5011643;28;20495;-63
2021/12/02 08:45:33;;;;;;;3.17;1.90;;;;;;;;;;5012240;28;20462;-61
2021/12/02 08:48:00;;;;;;;3.53;2.10;;;;;;;;;;5011820;28;20811;-62
2021/12/02 08:50:27;;;;;;;5.30;1.77;;;;;;;;;;5011980;28;21004;-62
2021/12/02 08:52:54;;;;;;;4.83;1.80;;;;;;;;;;5011676;28;20468;-62
2021/12/02 08:55:22;;;;;;;5.03;1.87;;;;;;;;;;5011942;28;20503;-62
2021/12/02 08:57:48;;;;;;;5.83;1.93;;;;;;;;;;5011936;28;20483;-62
2021/12/02 09:00:15;;;;;;;5.43;3.13;;;;;;;;;;5011841;28;20452;-65
2021/12/02 09:02:41;;;;;;;4.90;1.90;;;;;;;;;;5011896;28;20879;-64
2021/12/02 09:05:08;;;;;;;6.67;2.80;;;;;;;;;;5011429;28;20476;-63
2021/12/02 09:07:35;;;;;;;5.43;2.40;;;;;;;;;;5030894;28;20452;-62
2021/12/02 09:10:01;;;;;;;2.63;2.13;;;;;;;;;;5031317;28;20552;-62
2021/12/02 09:12:27;;;;;;;5.60;2.57;;;;;;;;;;5031730;28;20459;-65
2021/12/02 09:14:53;;;;;;;5.87;2.43;;;;;;;;;;5031311;28;20832;-62
2021/12/02 09:17:19;;;;;;;3.20;2.50;;;;;;;;;;5031573;28;20436;-62
2021/12/02 09:19:46;;;;;;;3.80;2.50;;;;;;;;;;5031628;28;20615;-61
2021/12/02 09:22:12;;;;;;;4.20;2.30;;;;;;;;;;5031432;28;20439;-62
2021/12/02 09:24:39;;;;;;;6.07;2.73;;;;;;;;;;5031557;28;20441;-62
2021/12/02 09:27:06;;;;;;;3.80;3.00;;;;;;;;;;5031069;28;20532;-62
2021/12/02 09:29:32;;;;;;;3.50;2.93;;;;;;;;;;5031332;28;20486;-62
2021/12/02 09:31:58;;;;;;;4.53;2.53;;;;;;;;;;5031076;28;20431;-62
2021/12/02 09:34:26;;;;;;;6.53;2.47;;;;;;;;;;5031240;28;20548;-63
2021/12/02 09:36:53;;;;;;;3.57;2.23;;;;;;;;;;5030953;28;20786;-64
2021/12/02 09:39:19;;;;;;;3.30;2.30;;;;;;;;;;5031363;28;20447;-63
2021/12/02 09:41:47;;;;;;;2.97;2.50;;;;;;;;;;5029423;28;20514;-65
2021/12/02 09:44:14;;;;;;;7.13;3.00;;;;;;;;;;5031144;28;20447;-65
2021/12/02 09:46:40;;;;;;;4.00;2.63;;;;;;;;;;5031265;28;20434;-64
2021/12/02 09:49:08;;;;;;;4.97;2.30;;;;;;;;;;5031358;28;20447;-64
2021/12/02 09:51:59;;;;;;;3.27;2.40;;;;;;;;;;5031409;28;20526;-64
2021/12/02 09:54:31;;;;;;;4.80;2.40;;;;;;;;;;5033555;28;20537;-64
2021/12/02 09:57:04;;;;;;;6.80;2.30;;;;;;;;;;5035361;28;20459;-63
2021/12/02 09:59:39;;;;;;;7.33;2.20;;;;;;;;;;5035320;28;20526;-63
2021/12/02 10:02:07;;;;;;;4.40;2.40;;;;;;;;;;5034776;28;20435;-63
2021/12/02 10:04:38;;;;;;;4.63;2.20;;;;;;;;;;5034873;28;20965;-63
2021/12/02 10:07:06;;;;;;;3.00;2.50;;;;;;;;;;5034829;28;20447;-63
2021/12/02 10:09:44;;;;;;;7.60;4.03;;;;;;;;;;5034803;28;20467;-63
2021/12/02 10:12:21;;;;;;;4.67;2.40;;;;;;;;;;5034659;28;20428;-63
2021/12/02 10:14:52;;;;;;;2.57;2.23;;;;;;;;;;5031636;28;20475;-64
2021/12/02 10:17:41;;;;;;;2.53;2.30;;;;;;;;;;5034645;28;20431;-73
2021/12/02 10:23:04;;;;;;;2.13;1.90;;;;;;;;;;5034679;28;20437;-70
2021/12/02 10:25:30;;;;;;;2.80;2.47;;;;;;;;;;5034602;28;20529;-70
2021/12/02 10:28:04;;;;;;;2.33;2.00;;;;;;;;;;5034341;28;20586;-70
2021/12/02 10:30:30;;;;;;;3.40;2.00;;;;;;;;;;5034476;28;20527;-70
2021/12/02 10:32:56;;;;;;;2.57;1.83;;;;;;;;;;5034439;28;20534;-70
2021/12/02 10:35:36;;;;;;;2.13;1.93;;;;;;;;;;5034104;28;20592;-70
2021/12/02 10:38:02;;;;;;;3.57;2.17;;;;;;;;;;5034404;28;20442;-71
2021/12/02 10:40:28;;;;;;;3.17;2.43;;;;;;;;;;5034564;28;20427;-71
2021/12/02 10:42:54;;;;;;;4.47;2.50;;;;;;;;;;5034286;28;20636;-71
2021/12/02 10:45:22;;;;;;;2.93;2.40;;;;;;;;;;5033972;28;20795;-71
2021/12/02 10:47:49;;;;;;;5.97;2.40;;;;;;;;;;5034060;28;20443;-71
2021/12/02 10:50:15;;;;;;;2.93;2.53;;;;;;;;;;5034068;28;20443;-71
2021/12/02 10:52:41;;;;;;;2.60;2.30;;;;;;;;;;5034113;28;20440;-71
2021/12/02 10:55:09;;;;;;;3.50;2.67;;;;;;;;;;5034201;28;20566;-71
2021/12/02 10:57:35;;;;;;;3.53;2.33;;;;;;;;;;5033958;28;20446;-71
2021/12/02 11:00:02;;;;;;;5.40;3.17;;;;;;;;;;5033922;28;20531;-71
2021/12/02 11:02:30;;;;;;;4.23;2.93;;;;;;;;;;5034101;28;20436;-70
2021/12/02 11:05:00;;;;;;;7.07;3.40;;;;;;;;;;5033280;28;20547;-71
2021/12/02 11:07:27;;;;;;;4.60;3.30;;;;;;;;;;5033995;28;20444;-71
2021/12/02 11:09:54;;;;;;;4.60;3.70;;;;;;;;;;5033574;28;20476;-71
2021/12/02 11:12:22;;;;;;;6.10;3.83;;;;;;;;;;5033875;28;20427;-71
2021/12/02 11:14:52;;;;;;;3.77;3.43;;;;;;;;;;5033626;28;20502;-66
2021/12/02 11:17:18;;;;;;;5.57;3.77;;;;;;;;;;5033825;28;20436;-72
2021/12/02 11:19:46;;;;;;;3.40;3.10;;;;;;;;;;5033857;28;20431;-75
2021/12/02 11:22:13;;;;;;;3.20;2.83;;;;;;;;;;5033397;28;20901;-75
2021/12/02 11:24:39;;;;;;;4.23;3.03;;;;;;;;;;5033595;28;20486;-69
2021/12/02 11:27:10;;;;;;;3.47;3.00;;;;;;;;;;5033002;28;20463;-70
2021/12/02 11:29:50;;;;;;;3.50;3.20;;;;;;;;;;5032940;28;20960;-65
2021/12/02 11:32:23;;;;;;;3.53;3.20;;;;;;;;;;5033276;28;20435;-72
2021/12/02 11:34:58;;;;;;;3.07;2.77;;;;;;;;;;5032838;28;20479;-71
2021/12/02 11:37:25;;;;;;;4.53;2.70;;;;;;;;;;5032767;28;20447;-68
2021/12/02 11:39:51;;;;;;;3.87;2.40;;;;;;;;;;5033066;28;20871;-70
2021/12/02 11:42:17;;;;;;;5.27;2.83;;;;;;;;;;5033015;28;20439;-73
2021/12/02 11:44:43;;;;;;;3.93;2.57;;;;;;;;;;5033225;28;20802;-71
2021/12/02 11:47:09;;;;;;;4.90;2.40;;;;;;;;;;5032574;28;20201;-64
2021/12/02 11:49:35;;;;;;;2.53;2.33;;;;;;;;;;5032811;28;20486;-68
2021/12/02 11:52:03;;;;;;;2.50;2.30;;;;;;;;;;5033052;28;20231;-75
2021/12/02 11:54:29;;;;;;;5.77;3.13;;;;;;;;;;5033197;28;20479;-75
2021/12/02 11:56:55;;;;;;;2.70;2.20;;;;;;;;;;5015377;28;20806;-75
2021/12/02 11:59:22;;;;;;;3.13;2.57;;;;;;;;;;5033002;28;20538;-75
2021/12/02 12:01:48;;;;;;;5.40;2.40;;;;;;;;;;5032978;28;20432;-74
2021/12/02 12:04:14;;;;;;;3.13;2.23;;;;;;;;;;5032664;28;20523;-75
2021/12/02 12:06:41;;;;;;;5.87;2.83;;;;;;;;;;5031240;28;20459;-75
2021/12/02 12:09:12;;;;;;;2.73;2.40;;;;;;;;;;5031909;28;20490;-75
2021/12/02 12:11:43;;;;;;;4.17;2.73;;;;;;;;;;5032074;28;20921;-76
2021/12/02 12:14:10;;;;;;;4.33;2.33;;;;;;;;;;5032077;28;21060;-74
2021/12/02 12:16:38;;;;;;;4.27;2.50;;;;;;;;;;5031163;28;20808;-74
2021/12/02 12:19:14;;;;;;;6.07;3.10;;;;;;;;;;5032191;28;20444;-75
2021/12/02 12:21:41;;;;;;;2.70;2.47;;;;;;;;;;5032121;28;20439;-75
2021/12/02 12:24:08;;;;;;;3.40;2.43;;;;;;;;;;5032068;28;20440;-76
2021/12/02 12:26:37;;;;;;;3.13;2.40;;;;;;;;;;5032170;28;20428;-75
2021/12/02 12:29:27;;;;;;;4.83;2.60;;;;;;;;;;5031698;28;20471;-75
2021/12/02 12:32:37;;;;;;;4.57;2.87;;;;;;;;;;5031651;28;20435;-74
2021/12/02 12:38:22;;;;;;;4.93;2.97;;;;;;;;;;4951301;29;20450;-74
2021/12/02 12:40:49;;;;;;;2.13;1.30;;;;;;;;;;5022493;28;20950;-73
2021/12/02 12:43:33;;;;;;;1.20;1.10;;;;;;;;;;5031678;28;20519;-73
2021/12/02 12:46:11;;;;;;;1.10;1.00;;;;;;;;;;5031504;28;21001;-74
2021/12/02 12:48:37;;;;;;;0.87;0.87;;;;;;;;;;5031678;28;20451;-74
2021/12/02 12:51:11;;;;;;;1.00;1.00;;;;;;;;;;5013971;28;20440;-74
2021/12/02 12:53:38;;;;;;;9.80;2.70;;;;;;;;;;5031651;28;20541;-73
2021/12/02 12:56:05;;;;;;;1.73;0.93;;;;;;;;;;5031678;28;20436;-75
2021/12/02 12:58:32;;;;;;;1.63;1.00;;;;;;;;;;5031759;28;20933;-74
2021/12/02 13:00:59;;;;;;;1.23;1.10;;;;;;;;;;5031593;28;20463;-75
2021/12/02 13:03:42;;;;;;;1.20;1.10;;;;;;;;;;5031627;28;20436;-75
2021/12/02 13:06:18;;;;;;;1.43;1.10;;;;;;;;;;5031399;28;20831;-72
2021/12/02 13:08:45;;;;;;;1.13;1.13;;;;;;;;;;5031537;28;20570;-73
2021/12/02 13:11:13;;;;;;;1.57;1.20;;;;;;;;;;5031184;28;20516;-74
2021/12/02 13:13:39;;;;;;;2.13;1.43;;;;;;;;;;5030887;28;20472;-73
2021/12/02 13:16:10;;;;;;;1.20;1.10;;;;;;;;;;5030431;28;20960;-74
2021/12/02 13:18:39;;;;;;;3.63;1.50;;;;;;;;;;5031152;28;20490;-74
2021/12/02 13:21:21;;;;;;;4.63;2.50;;;;;;;;;;5030973;28;20451;-75
2021/12/02 13:23:55;;;;;;;3.67;1.67;;;;;;;;;;5031206;28;20438;-74
2021/12/02 13:26:21;;;;;;;2.13;1.50;;;;;;;;;;5031096;28;20523;-74
2021/12/02 13:28:49;;;;;;;1.93;1.83;;;;;;;;;;5034237;28;20443;-74
2021/12/02 13:31:16;;;;;;;1.40;1.30;;;;;;;;;;5035180;28;20522;-74
2021/12/02 13:33:44;;;;;;;2.80;1.53;;;;;;;;;;5034996;28;20478;-73
2021/12/02 13:36:11;;;;;;;0.80;0.80;;;;;;;;;;5034889;28;20590;-75
2021/12/02 13:38:37;;;;;;;0.90;0.90;;;;;;;;;;5034948;28;20995;-74
2021/12/02 13:41:10;;;;;;;3.50;1.80;;;;;;;;;;5035183;28;20431;-75
2021/12/02 13:43:51;;;;;;;2.30;1.73;;;;;;;;;;5035039;28;20447;-74
2021/12/02 13:46:17;;;;;;;2.10;1.47;;;;;;;;;;5035178;28;20450;-74
2021/12/02 13:48:54;;;;;;;2.77;1.87;;;;;;;;;;5034846;28;20437;-73
2021/12/02 13:54:17;;;;;;;0.80;0.80;;;;;;;;;;5035352;28;20478;-74
2021/12/02 13:56:43;;;;;;;1.00;0.90;;;;;;;;;;5035073;28;20850;-74
2021/12/02 13:59:14;;;;;;;1.50;1.03;;;;;;;;;;5034912;28;20444;-74
2021/12/02 14:01:48;;;;;;;2.70;1.20;;;;;;;;;;5035222;28;20205;-74
2021/12/02 14:04:16;;;;;;;1.00;0.97;;;;;;;;;;5035045;28;20473;-74
2021/12/02 14:06:42;;;;;;;1.93;1.20;;;;;;;;;;5035060;28;20450;-75
2021/12/02 14:09:12;;;;;;;1.03;1.00;;;;;;;;;;5034688;28;20552;-75
2021/12/02 14:11:38;;;;;;;2.00;1.40;;;;;;;;;;5028951;28;20576;-66
2021/12/02 14:14:04;;;;;;;1.60;1.47;;;;;;;;;;5032973;28;20985;-66
2021/12/02 14:16:30;;;;;;;3.20;2.00;;;;;;;;;;5034808;28;20193;-66
2021/12/02 14:19:07;;;;;;;3.73;2.80;;;;;;;;;;5034611;28;20502;-66
2021/12/02 14:21:35;;;;;;;3.03;2.00;;;;;;;;;;5034738;28;20454;-66
2021/12/02 14:24:01;;;;;;;5.43;3.00;;;;;;;;;;5034332;28;20435;-68
2021/12/02 14:26:29;;;;;;;3.57;2.63;;;;;;;;;;5032911;28;20955;-67
2021/12/02 14:28:56;;;;;;;3.63;2.00;;;;;;;;;;5034521;28;20448;-67
2021/12/02 14:31:23;;;;;;;3.10;1.60;;;;;;;;;;5033918;28;20792;-71
2021/12/02 14:33:51;;;;;;;1.40;1.30;;;;;;;;;;5034439;28;20229;-69
2021/12/02 14:36:18;;;;;;;2.33;1.40;;;;;;;;;;5034228;28;20447;-68
2021/12/02 14:38:47;;;;;;;4.80;3.30;;;;;;;;;;5033725;28;20452;-68
2021/12/02 14:41:14;;;;;;;2.90;2.60;;;;;;;;;;5033717;28;20447;-68
2021/12/02 14:43:47;;;;;;;2.00;1.70;;;;;;;;;;5033884;28;20530;-68
2021/12/02 14:46:15;;;;;;;2.70;1.97;;;;;;;;;;5034256;28;20450;-68
2021/12/02 14:48:42;;;;;;;3.43;2.67;;;;;;;;;;5034220;28;20432;-68
2021/12/02 14:51:09;;;;;;;5.57;3.13;;;;;;;;;;5034100;28;20526;-70
2021/12/02 14:53:37;;;;;;;3.70;2.53;;;;;;;;;;5033980;28;20497;-69
2021/12/02 14:56:18;;;;;;;2.07;1.80;;;;;;;;;;5033930;28;20459;-69
2021/12/02 14:59:04;;;;;;;2.17;1.97;;;;;;;;;;5033977;28;20902;-68
2021/12/02 15:01:30;;;;;;;1.73;1.63;;;;;;;;;;5034094;28;20506;-68
2021/12/02 15:03:56;;;;;;;2.87;2.50;;;;;;;;;;5033881;28;20486;-67
2021/12/02 15:06:34;;;;;;;3.60;2.67;;;;;;;;;;5033528;28;20476;-68
2021/12/02 15:09:00;;;;;;;1.97;1.80;;;;;;;;;;5033746;28;20240;-68
2021/12/02 15:11:31;;;;;;;2.60;1.87;;;;;;;;;;5033735;28;20453;-68
2021/12/02 15:13:59;;;;;;;2.33;1.50;;;;;;;;;;5033697;28;20505;-68
2021/12/02 15:16:25;;;;;;;1.67;1.30;;;;;;;;;;5033859;28;20439;-66